sensor_id;sensor_type;location;lat;lon;timestamp;temperature;humidity
39601;DHT22;25297;44.758;11.310;2024-01-25T00:00:57;6.50;86.60
39601;DHT22;25297;44.758;11.310;2024-01-25T00:03:23;6.50;86.40
39601;DHT22;25297;44.758;11.310;2024-01-25T00:05:49;6.60;85.80
39601;DHT22;25297;44.758;11.310;2024-01-25T00:08:14;6.60;85.70
39601;DHT22;25297;44.758;11.310;2024-01-25T00:10:40;6.60;84.70
39601;DHT22;25297;44.758;11.310;2024-01-25T00:13:06;6.60;84.10
39601;DHT22;25297;44.758;11.310;2024-01-25T00:15:32;6.50;83.80
39601;DHT22;25297;44.758;11.310;2024-01-25T00:17:58;6.50;84.30
39601;DHT22;25297;44.758;11.310;2024-01-25T00:20:23;6.40;84.60
39601;DHT22;25297;44.758;11.310;2024-01-25T00:22:49;6.40;85.00
39601;DHT22;25297;44.758;11.310;2024-01-25T00:25:14;6.30;84.40
39601;DHT22;25297;44.758;11.310;2024-01-25T00:27:40;6.30;84.90
39601;DHT22;25297;44.758;11.310;2024-01-25T00:30:06;6.20;85.30
39601;DHT22;25297;44.758;11.310;2024-01-25T00:32:32;6.10;85.50
39601;DHT22;25297;44.758;11.310;2024-01-25T00:34:58;6.10;84.90
39601;DHT22;25297;44.758;11.310;2024-01-25T00:37:23;6.10;85.30
39601;DHT22;25297;44.758;11.310;2024-01-25T00:39:49;6.10;85.90
39601;DHT22;25297;44.758;11.310;2024-01-25T00:42:16;6.00;85.30
39601;DHT22;25297;44.758;11.310;2024-01-25T00:44:42;6.00;85.40
39601;DHT22;25297;44.758;11.310;2024-01-25T00:47:08;6.00;85.40
39601;DHT22;25297;44.758;11.310;2024-01-25T00:49:35;6.00;85.30
39601;DHT22;25297;44.758;11.310;2024-01-25T00:52:02;6.00;85.70
39601;DHT22;25297;44.758;11.310;2024-01-25T00:54:29;5.90;86.10
39601;DHT22;25297;44.758;11.310;2024-01-25T00:56:55;6.00;86.60
39601;DHT22;25297;44.758;11.310;2024-01-25T00:59:21;6.00;86.70
39601;DHT22;25297;44.758;11.310;2024-01-25T01:01:47;6.10;86.50
39601;DHT22;25297;44.758;11.310;2024-01-25T01:04:14;6.00;86.20
39601;DHT22;25297;44.758;11.310;2024-01-25T01:06:40;6.00;85.40
39601;DHT22;25297;44.758;11.310;2024-01-25T01:09:06;6.00;85.60
39601;DHT22;25297;44.758;11.310;2024-01-25T01:11:33;6.00;85.90
39601;DHT22;25297;44.758;11.310;2024-01-25T01:13:58;6.00;85.60
39601;DHT22;25297;44.758;11.310;2024-01-25T01:16:24;5.90;84.60
39601;DHT22;25297;44.758;11.310;2024-01-25T01:18:49;5.90;85.10
39601;DHT22;25297;44.758;11.310;2024-01-25T01:21:15;5.90;85.00
39601;DHT22;25297;44.758;11.310;2024-01-25T01:23:41;5.80;85.10
39601;DHT22;25297;44.758;11.310;2024-01-25T01:26:07;5.80;85.10
39601;DHT22;25297;44.758;11.310;2024-01-25T01:28:33;5.80;85.60
39601;DHT22;25297;44.758;11.310;2024-01-25T01:30:58;5.80;85.60
39601;DHT22;25297;44.758;11.310;2024-01-25T01:33:24;5.80;85.50
39601;DHT22;25297;44.758;11.310;2024-01-25T01:35:50;5.80;85.10
39601;DHT22;25297;44.758;11.310;2024-01-25T01:38:15;5.80;85.60
39601;DHT22;25297;44.758;11.310;2024-01-25T01:40:41;5.80;85.50
39601;DHT22;25297;44.758;11.310;2024-01-25T01:43:06;5.70;85.70
39601;DHT22;25297;44.758;11.310;2024-01-25T01:45:32;5.70;85.70
39601;DHT22;25297;44.758;11.310;2024-01-25T01:47:59;5.70;86.10
39601;DHT22;25297;44.758;11.310;2024-01-25T01:50:25;5.70;86.00
39601;DHT22;25297;44.758;11.310;2024-01-25T01:52:51;5.70;86.20
39601;DHT22;25297;44.758;11.310;2024-01-25T01:55:17;5.70;85.90
39601;DHT22;25297;44.758;11.310;2024-01-25T01:57:45;5.70;86.30
39601;DHT22;25297;44.758;11.310;2024-01-25T02:00:12;5.70;85.70
39601;DHT22;25297;44.758;11.310;2024-01-25T02:02:40;5.80;86.10
39601;DHT22;25297;44.758;11.310;2024-01-25T02:05:06;5.70;85.20
39601;DHT22;25297;44.758;11.310;2024-01-25T02:07:31;5.70;85.70
39601;DHT22;25297;44.758;11.310;2024-01-25T02:09:57;5.70;86.10
39601;DHT22;25297;44.758;11.310;2024-01-25T02:12:23;5.70;86.60
39601;DHT22;25297;44.758;11.310;2024-01-25T02:14:48;5.80;86.00
39601;DHT22;25297;44.758;11.310;2024-01-25T02:17:14;5.70;86.50
39601;DHT22;25297;44.758;11.310;2024-01-25T02:19:39;5.80;86.10
39601;DHT22;25297;44.758;11.310;2024-01-25T02:22:05;5.70;85.90
39601;DHT22;25297;44.758;11.310;2024-01-25T02:24:31;5.70;85.90
39601;DHT22;25297;44.758;11.310;2024-01-25T02:26:57;5.70;85.90
39601;DHT22;25297;44.758;11.310;2024-01-25T02:29:22;5.70;86.10
39601;DHT22;25297;44.758;11.310;2024-01-25T02:31:48;5.70;86.20
39601;DHT22;25297;44.758;11.310;2024-01-25T02:34:14;5.60;86.30
39601;DHT22;25297;44.758;11.310;2024-01-25T02:36:39;5.70;85.90
39601;DHT22;25297;44.758;11.310;2024-01-25T02:39:05;5.70;86.00
39601;DHT22;25297;44.758;11.310;2024-01-25T02:41:31;5.60;86.10
39601;DHT22;25297;44.758;11.310;2024-01-25T02:43:58;5.70;86.30
39601;DHT22;25297;44.758;11.310;2024-01-25T02:46:23;5.70;85.30
39601;DHT22;25297;44.758;11.310;2024-01-25T02:48:49;5.70;85.40
39601;DHT22;25297;44.758;11.310;2024-01-25T02:51:15;5.70;85.30
39601;DHT22;25297;44.758;11.310;2024-01-25T02:53:41;5.60;85.10
39601;DHT22;25297;44.758;11.310;2024-01-25T02:56:06;5.60;84.60
39601;DHT22;25297;44.758;11.310;2024-01-25T02:58:32;5.60;85.30
39601;DHT22;25297;44.758;11.310;2024-01-25T03:00:58;5.50;85.40
39601;DHT22;25297;44.758;11.310;2024-01-25T03:03:24;5.50;85.10
39601;DHT22;25297;44.758;11.310;2024-01-25T03:05:51;5.50;84.90
39601;DHT22;25297;44.758;11.310;2024-01-25T03:08:17;5.50;85.60
39601;DHT22;25297;44.758;11.310;2024-01-25T03:10:43;5.50;85.70
39601;DHT22;25297;44.758;11.310;2024-01-25T03:13:08;5.50;86.00
39601;DHT22;25297;44.758;11.310;2024-01-25T03:15:34;5.50;85.90
39601;DHT22;25297;44.758;11.310;2024-01-25T03:18:00;5.50;86.20
39601;DHT22;25297;44.758;11.310;2024-01-25T03:20:25;5.40;85.60
39601;DHT22;25297;44.758;11.310;2024-01-25T03:22:51;5.50;85.50
39601;DHT22;25297;44.758;11.310;2024-01-25T03:25:17;5.40;85.00
39601;DHT22;25297;44.758;11.310;2024-01-25T03:27:42;5.40;85.60
39601;DHT22;25297;44.758;11.310;2024-01-25T03:30:08;5.50;85.90
39601;DHT22;25297;44.758;11.310;2024-01-25T03:32:35;5.50;86.20
39601;DHT22;25297;44.758;11.310;2024-01-25T03:35:01;5.50;85.90
39601;DHT22;25297;44.758;11.310;2024-01-25T03:37:26;5.50;86.90
39601;DHT22;25297;44.758;11.310;2024-01-25T03:39:52;5.50;86.40
39601;DHT22;25297;44.758;11.310;2024-01-25T03:42:17;5.50;86.50
39601;DHT22;25297;44.758;11.310;2024-01-25T03:44:43;5.50;85.70
39601;DHT22;25297;44.758;11.310;2024-01-25T03:47:10;5.50;85.60
39601;DHT22;25297;44.758;11.310;2024-01-25T03:49:36;5.40;85.90
39601;DHT22;25297;44.758;11.310;2024-01-25T03:52:02;5.40;86.70
39601;DHT22;25297;44.758;11.310;2024-01-25T03:54:28;5.30;87.30
39601;DHT22;25297;44.758;11.310;2024-01-25T03:56:53;5.30;87.70
39601;DHT22;25297;44.758;11.310;2024-01-25T03:59:19;5.40;87.60
39601;DHT22;25297;44.758;11.310;2024-01-25T04:01:45;5.40;87.60
39601;DHT22;25297;44.758;11.310;2024-01-25T04:04:13;5.40;87.20
39601;DHT22;25297;44.758;11.310;2024-01-25T04:06:44;5.40;86.60
39601;DHT22;25297;44.758;11.310;2024-01-25T04:09:11;5.40;87.00
39601;DHT22;25297;44.758;11.310;2024-01-25T04:11:37;5.40;86.70
39601;DHT22;25297;44.758;11.310;2024-01-25T04:14:03;5.40;86.50
39601;DHT22;25297;44.758;11.310;2024-01-25T04:16:29;5.40;86.00
39601;DHT22;25297;44.758;11.310;2024-01-25T04:18:55;5.40;86.60
39601;DHT22;25297;44.758;11.310;2024-01-25T04:21:20;5.40;86.80
39601;DHT22;25297;44.758;11.310;2024-01-25T04:23:46;5.30;87.10
39601;DHT22;25297;44.758;11.310;2024-01-25T04:26:12;5.30;87.20
39601;DHT22;25297;44.758;11.310;2024-01-25T04:28:37;5.20;87.90
39601;DHT22;25297;44.758;11.310;2024-01-25T04:31:03;5.20;88.10
39601;DHT22;25297;44.758;11.310;2024-01-25T04:33:29;5.00;88.50
39601;DHT22;25297;44.758;11.310;2024-01-25T04:35:55;4.90;89.10
39601;DHT22;25297;44.758;11.310;2024-01-25T04:38:21;4.90;89.90
39601;DHT22;25297;44.758;11.310;2024-01-25T04:40:47;4.90;89.60
39601;DHT22;25297;44.758;11.310;2024-01-25T04:43:13;4.80;89.10
39601;DHT22;25297;44.758;11.310;2024-01-25T04:45:39;4.80;88.20
39601;DHT22;25297;44.758;11.310;2024-01-25T04:48:05;4.80;88.70
39601;DHT22;25297;44.758;11.310;2024-01-25T04:50:31;4.80;88.80
39601;DHT22;25297;44.758;11.310;2024-01-25T04:52:57;4.80;89.00
39601;DHT22;25297;44.758;11.310;2024-01-25T04:55:22;4.80;88.60
39601;DHT22;25297;44.758;11.310;2024-01-25T04:57:48;4.70;89.10
39601;DHT22;25297;44.758;11.310;2024-01-25T05:00:20;4.70;88.90
39601;DHT22;25297;44.758;11.310;2024-01-25T05:02:47;4.70;88.70
39601;DHT22;25297;44.758;11.310;2024-01-25T05:05:12;4.70;87.80
39601;DHT22;25297;44.758;11.310;2024-01-25T05:07:38;4.70;88.30
39601;DHT22;25297;44.758;11.310;2024-01-25T05:10:04;4.70;88.00
39601;DHT22;25297;44.758;11.310;2024-01-25T05:12:30;4.70;87.70
39601;DHT22;25297;44.758;11.310;2024-01-25T05:14:55;4.70;86.90
39601;DHT22;25297;44.758;11.310;2024-01-25T05:17:21;4.70;87.50
39601;DHT22;25297;44.758;11.310;2024-01-25T05:19:46;4.60;87.40
39601;DHT22;25297;44.758;11.310;2024-01-25T05:22:12;4.60;87.00
39601;DHT22;25297;44.758;11.310;2024-01-25T05:24:38;4.60;87.00
39601;DHT22;25297;44.758;11.310;2024-01-25T05:27:03;4.60;87.20
39601;DHT22;25297;44.758;11.310;2024-01-25T05:29:29;4.60;87.60
39601;DHT22;25297;44.758;11.310;2024-01-25T05:31:55;4.60;87.50
39601;DHT22;25297;44.758;11.310;2024-01-25T05:34:21;4.60;87.10
39601;DHT22;25297;44.758;11.310;2024-01-25T05:36:47;4.60;86.50
39601;DHT22;25297;44.758;11.310;2024-01-25T05:39:13;4.60;87.10
39601;DHT22;25297;44.758;11.310;2024-01-25T05:41:39;4.60;87.40
39601;DHT22;25297;44.758;11.310;2024-01-25T05:44:05;4.70;87.40
39601;DHT22;25297;44.758;11.310;2024-01-25T05:46:30;4.60;86.40
39601;DHT22;25297;44.758;11.310;2024-01-25T05:48:56;4.70;87.00
39601;DHT22;25297;44.758;11.310;2024-01-25T05:51:22;4.60;87.00
39601;DHT22;25297;44.758;11.310;2024-01-25T05:53:48;4.60;87.10
39601;DHT22;25297;44.758;11.310;2024-01-25T05:56:13;4.60;86.80
39601;DHT22;25297;44.758;11.310;2024-01-25T05:58:39;4.60;87.40
39601;DHT22;25297;44.758;11.310;2024-01-25T06:01:06;4.60;87.90
39601;DHT22;25297;44.758;11.310;2024-01-25T06:03:32;4.60;87.40
39601;DHT22;25297;44.758;11.310;2024-01-25T06:05:57;4.70;86.50
39601;DHT22;25297;44.758;11.310;2024-01-25T06:08:23;4.70;86.60
39601;DHT22;25297;44.758;11.310;2024-01-25T06:10:48;4.70;85.80
39601;DHT22;25297;44.758;11.310;2024-01-25T06:13:14;4.70;85.70
39601;DHT22;25297;44.758;11.310;2024-01-25T06:15:40;4.70;85.00
39601;DHT22;25297;44.758;11.310;2024-01-25T06:18:05;4.70;85.50
39601;DHT22;25297;44.758;11.310;2024-01-25T06:20:31;4.70;85.50
39601;DHT22;25297;44.758;11.310;2024-01-25T06:22:57;4.70;85.30
39601;DHT22;25297;44.758;11.310;2024-01-25T06:25:23;4.70;85.00
39601;DHT22;25297;44.758;11.310;2024-01-25T06:27:49;4.60;85.20
39601;DHT22;25297;44.758;11.310;2024-01-25T06:30:14;4.70;84.80
39601;DHT22;25297;44.758;11.310;2024-01-25T06:32:40;4.70;84.80
39601;DHT22;25297;44.758;11.310;2024-01-25T06:35:06;4.60;84.20
39601;DHT22;25297;44.758;11.310;2024-01-25T06:37:32;4.60;84.70
39601;DHT22;25297;44.758;11.310;2024-01-25T06:39:58;4.60;84.90
39601;DHT22;25297;44.758;11.310;2024-01-25T06:42:24;4.60;84.70
39601;DHT22;25297;44.758;11.310;2024-01-25T06:44:49;4.60;84.80
39601;DHT22;25297;44.758;11.310;2024-01-25T06:47:15;4.50;85.20
39601;DHT22;25297;44.758;11.310;2024-01-25T06:49:41;4.60;85.60
39601;DHT22;25297;44.758;11.310;2024-01-25T06:52:06;4.60;85.90
39601;DHT22;25297;44.758;11.310;2024-01-25T06:54:32;4.60;86.10
39601;DHT22;25297;44.758;11.310;2024-01-25T06:56:58;4.60;86.30
39601;DHT22;25297;44.758;11.310;2024-01-25T06:59:23;4.60;86.90
39601;DHT22;25297;44.758;11.310;2024-01-25T07:01:49;4.60;86.80
39601;DHT22;25297;44.758;11.310;2024-01-25T07:04:15;4.60;87.00
39601;DHT22;25297;44.758;11.310;2024-01-25T07:06:40;4.60;85.20
39601;DHT22;25297;44.758;11.310;2024-01-25T07:09:06;4.60;85.40
39601;DHT22;25297;44.758;11.310;2024-01-25T07:11:32;4.70;84.90
39601;DHT22;25297;44.758;11.310;2024-01-25T07:13:58;4.60;84.80
39601;DHT22;25297;44.758;11.310;2024-01-25T07:16:23;4.60;84.50
39601;DHT22;25297;44.758;11.310;2024-01-25T07:18:49;4.60;85.00
39601;DHT22;25297;44.758;11.310;2024-01-25T07:21:15;4.60;84.80
39601;DHT22;25297;44.758;11.310;2024-01-25T07:23:40;4.60;85.50
39601;DHT22;25297;44.758;11.310;2024-01-25T07:26:06;4.60;84.70
39601;DHT22;25297;44.758;11.310;2024-01-25T07:28:32;4.70;85.20
39601;DHT22;25297;44.758;11.310;2024-01-25T07:30:57;4.70;85.80
39601;DHT22;25297;44.758;11.310;2024-01-25T07:33:23;4.70;85.10
39601;DHT22;25297;44.758;11.310;2024-01-25T07:35:49;4.70;84.50
39601;DHT22;25297;44.758;11.310;2024-01-25T07:38:15;4.70;85.00
39601;DHT22;25297;44.758;11.310;2024-01-25T07:40:41;4.70;85.10
39601;DHT22;25297;44.758;11.310;2024-01-25T07:43:07;4.70;85.10
39601;DHT22;25297;44.758;11.310;2024-01-25T07:45:32;4.60;84.80
39601;DHT22;25297;44.758;11.310;2024-01-25T07:47:58;4.70;85.40
39601;DHT22;25297;44.758;11.310;2024-01-25T07:50:24;4.70;86.00
39601;DHT22;25297;44.758;11.310;2024-01-25T07:52:50;4.70;86.30
39601;DHT22;25297;44.758;11.310;2024-01-25T07:55:18;4.80;85.90
39601;DHT22;25297;44.758;11.310;2024-01-25T07:57:44;4.80;86.50
39601;DHT22;25297;44.758;11.310;2024-01-25T08:00:10;4.90;86.90
39601;DHT22;25297;44.758;11.310;2024-01-25T08:02:36;4.90;87.10
39601;DHT22;25297;44.758;11.310;2024-01-25T08:05:03;5.00;87.30
39601;DHT22;25297;44.758;11.310;2024-01-25T08:07:29;5.00;87.90
39601;DHT22;25297;44.758;11.310;2024-01-25T08:09:55;5.10;88.10
39601;DHT22;25297;44.758;11.310;2024-01-25T08:12:24;5.20;88.10
39601;DHT22;25297;44.758;11.310;2024-01-25T08:14:50;5.30;87.70
39601;DHT22;25297;44.758;11.310;2024-01-25T08:17:15;5.30;88.20
39601;DHT22;25297;44.758;11.310;2024-01-25T08:19:41;5.40;88.30
39601;DHT22;25297;44.758;11.310;2024-01-25T08:22:06;5.50;88.40
39601;DHT22;25297;44.758;11.310;2024-01-25T08:24:32;5.60;88.50
39601;DHT22;25297;44.758;11.310;2024-01-25T08:26:58;5.70;88.40
39601;DHT22;25297;44.758;11.310;2024-01-25T08:29:23;5.70;88.60
39601;DHT22;25297;44.758;11.310;2024-01-25T08:31:49;5.80;88.50
39601;DHT22;25297;44.758;11.310;2024-01-25T08:34:14;5.80;88.40
39601;DHT22;25297;44.758;11.310;2024-01-25T08:36:40;5.90;88.00
39601;DHT22;25297;44.758;11.310;2024-01-25T08:39:06;5.90;88.70
39601;DHT22;25297;44.758;11.310;2024-01-25T08:41:34;6.00;89.00
39601;DHT22;25297;44.758;11.310;2024-01-25T08:44:00;6.00;89.20
39601;DHT22;25297;44.758;11.310;2024-01-25T08:46:26;6.10;89.10
39601;DHT22;25297;44.758;11.310;2024-01-25T08:48:51;6.20;89.90
39601;DHT22;25297;44.758;11.310;2024-01-25T08:51:17;6.30;90.00
39601;DHT22;25297;44.758;11.310;2024-01-25T08:53:43;6.30;90.10
39601;DHT22;25297;44.758;11.310;2024-01-25T08:56:08;6.50;90.00
39601;DHT22;25297;44.758;11.310;2024-01-25T08:58:34;6.50;90.20
39601;DHT22;25297;44.758;11.310;2024-01-25T09:01:00;6.60;90.10
39601;DHT22;25297;44.758;11.310;2024-01-25T09:03:25;6.70;90.10
39601;DHT22;25297;44.758;11.310;2024-01-25T09:05:51;6.80;90.00
39601;DHT22;25297;44.758;11.310;2024-01-25T09:08:17;6.80;90.30
39601;DHT22;25297;44.758;11.310;2024-01-25T09:10:43;6.90;90.50
39601;DHT22;25297;44.758;11.310;2024-01-25T09:13:10;7.00;90.40
39601;DHT22;25297;44.758;11.310;2024-01-25T09:15:36;7.10;90.30
39601;DHT22;25297;44.758;11.310;2024-01-25T09:18:01;7.20;90.60
39601;DHT22;25297;44.758;11.310;2024-01-25T09:20:27;7.20;90.70
39601;DHT22;25297;44.758;11.310;2024-01-25T09:22:53;7.30;90.90
39601;DHT22;25297;44.758;11.310;2024-01-25T09:25:22;7.40;90.80
39601;DHT22;25297;44.758;11.310;2024-01-25T09:27:47;7.50;91.10
39601;DHT22;25297;44.758;11.310;2024-01-25T09:30:13;7.60;91.20
39601;DHT22;25297;44.758;11.310;2024-01-25T09:32:39;7.70;91.30
39601;DHT22;25297;44.758;11.310;2024-01-25T09:35:05;8.00;91.70
39601;DHT22;25297;44.758;11.310;2024-01-25T09:37:31;8.10;91.90
39601;DHT22;25297;44.758;11.310;2024-01-25T09:39:57;8.30;92.00
39601;DHT22;25297;44.758;11.310;2024-01-25T09:42:25;8.60;91.90
39601;DHT22;25297;44.758;11.310;2024-01-25T09:44:54;9.00;91.50
39601;DHT22;25297;44.758;11.310;2024-01-25T09:47:20;9.10;91.80
39601;DHT22;25297;44.758;11.310;2024-01-25T09:49:47;9.40;91.60
39601;DHT22;25297;44.758;11.310;2024-01-25T09:52:13;9.60;90.90
39601;DHT22;25297;44.758;11.310;2024-01-25T09:54:39;9.70;91.00
39601;DHT22;25297;44.758;11.310;2024-01-25T09:57:24;9.90;90.50
39601;DHT22;25297;44.758;11.310;2024-01-25T09:59:52;10.00;90.10
39601;DHT22;25297;44.758;11.310;2024-01-25T10:02:19;10.00;89.80
39601;DHT22;25297;44.758;11.310;2024-01-25T10:04:49;10.10;89.70
39601;DHT22;25297;44.758;11.310;2024-01-25T10:07:16;10.10;89.60
39601;DHT22;25297;44.758;11.310;2024-01-25T10:09:41;10.20;89.70
39601;DHT22;25297;44.758;11.310;2024-01-25T10:12:10;10.20;89.80
39601;DHT22;25297;44.758;11.310;2024-01-25T10:14:36;10.20;89.60
39601;DHT22;25297;44.758;11.310;2024-01-25T10:17:01;10.20;89.20
39601;DHT22;25297;44.758;11.310;2024-01-25T10:19:27;10.30;89.50
39601;DHT22;25297;44.758;11.310;2024-01-25T10:21:53;10.30;89.50
39601;DHT22;25297;44.758;11.310;2024-01-25T10:24:21;10.30;89.40
39601;DHT22;25297;44.758;11.310;2024-01-25T10:26:48;10.30;88.70
39601;DHT22;25297;44.758;11.310;2024-01-25T10:29:14;10.40;89.30
39601;DHT22;25297;44.758;11.310;2024-01-25T10:31:41;10.40;89.70
39601;DHT22;25297;44.758;11.310;2024-01-25T10:34:09;10.50;90.10
39601;DHT22;25297;44.758;11.310;2024-01-25T10:36:38;10.60;89.60
39601;DHT22;25297;44.758;11.310;2024-01-25T10:39:03;10.60;89.90
39601;DHT22;25297;44.758;11.310;2024-01-25T10:41:34;10.60;89.70
39601;DHT22;25297;44.758;11.310;2024-01-25T10:44:00;10.60;89.50
39601;DHT22;25297;44.758;11.310;2024-01-25T10:46:28;10.60;88.40
39601;DHT22;25297;44.758;11.310;2024-01-25T10:48:57;10.70;89.00
39601;DHT22;25297;44.758;11.310;2024-01-25T10:51:25;10.70;89.00
39601;DHT22;25297;44.758;11.310;2024-01-25T10:53:51;10.70;88.90
39601;DHT22;25297;44.758;11.310;2024-01-25T10:56:18;10.80;88.60
39601;DHT22;25297;44.758;11.310;2024-01-25T10:58:44;10.80;89.00
39601;DHT22;25297;44.758;11.310;2024-01-25T11:01:10;10.80;88.60
39601;DHT22;25297;44.758;11.310;2024-01-25T11:03:36;10.90;88.60
39601;DHT22;25297;44.758;11.310;2024-01-25T11:06:11;11.00;88.40
39601;DHT22;25297;44.758;11.310;2024-01-25T11:08:38;11.00;88.10
39601;DHT22;25297;44.758;11.310;2024-01-25T11:11:12;11.00;87.70
39601;DHT22;25297;44.758;11.310;2024-01-25T11:13:39;11.10;87.50
39601;DHT22;25297;44.758;11.310;2024-01-25T11:16:16;11.00;86.20
39601;DHT22;25297;44.758;11.310;2024-01-25T11:21:41;11.20;86.30
39601;DHT22;25297;44.758;11.310;2024-01-25T11:24:23;11.20;86.20
39601;DHT22;25297;44.758;11.310;2024-01-25T11:26:53;11.30;85.10
39601;DHT22;25297;44.758;11.310;2024-01-25T11:29:20;11.40;85.90
39601;DHT22;25297;44.758;11.310;2024-01-25T11:31:48;11.40;85.90
39601;DHT22;25297;44.758;11.310;2024-01-25T11:34:15;11.50;85.50
39601;DHT22;25297;44.758;11.310;2024-01-25T11:36:44;11.50;85.10
39601;DHT22;25297;44.758;11.310;2024-01-25T11:39:11;11.60;85.50
39601;DHT22;25297;44.758;11.310;2024-01-25T11:41:37;11.70;85.10
39601;DHT22;25297;44.758;11.310;2024-01-25T11:44:03;11.70;84.30
39601;DHT22;25297;44.758;11.310;2024-01-25T11:46:30;11.80;84.20
39601;DHT22;25297;44.758;11.310;2024-01-25T11:48:58;11.90;84.80
39601;DHT22;25297;44.758;11.310;2024-01-25T11:51:24;11.90;84.80
39601;DHT22;25297;44.758;11.310;2024-01-25T11:53:49;12.00;84.20
39601;DHT22;25297;44.758;11.310;2024-01-25T11:56:20;12.10;83.10
39601;DHT22;25297;44.758;11.310;2024-01-25T11:58:47;12.10;83.70
39601;DHT22;25297;44.758;11.310;2024-01-25T12:01:13;12.20;84.00
39601;DHT22;25297;44.758;11.310;2024-01-25T12:03:40;12.30;84.40
39601;DHT22;25297;44.758;11.310;2024-01-25T12:06:06;12.40;83.20
39601;DHT22;25297;44.758;11.310;2024-01-25T12:08:35;12.50;83.60
39601;DHT22;25297;44.758;11.310;2024-01-25T12:11:08;12.60;84.00
39601;DHT22;25297;44.758;11.310;2024-01-25T12:13:44;12.60;83.80
39601;DHT22;25297;44.758;11.310;2024-01-25T12:16:11;12.70;83.50
39601;DHT22;25297;44.758;11.310;2024-01-25T12:18:37;12.80;84.10
39601;DHT22;25297;44.758;11.310;2024-01-25T12:21:05;12.80;84.20
39601;DHT22;25297;44.758;11.310;2024-01-25T12:23:35;12.90;84.40
39601;DHT22;25297;44.758;11.310;2024-01-25T12:26:06;13.00;83.80
39601;DHT22;25297;44.758;11.310;2024-01-25T12:28:32;13.10;84.30
39601;DHT22;25297;44.758;11.310;2024-01-25T12:31:01;13.20;84.20
39601;DHT22;25297;44.758;11.310;2024-01-25T12:33:28;13.30;83.90
39601;DHT22;25297;44.758;11.310;2024-01-25T12:35:54;13.40;83.40
39601;DHT22;25297;44.758;11.310;2024-01-25T12:38:23;13.50;83.80
39601;DHT22;25297;44.758;11.310;2024-01-25T12:40:49;13.50;83.50
39601;DHT22;25297;44.758;11.310;2024-01-25T12:43:16;13.60;83.40
39601;DHT22;25297;44.758;11.310;2024-01-25T12:45:42;13.70;82.70
39601;DHT22;25297;44.758;11.310;2024-01-25T12:48:08;13.80;83.10
39601;DHT22;25297;44.758;11.310;2024-01-25T12:50:35;13.80;83.10
39601;DHT22;25297;44.758;11.310;2024-01-25T12:53:01;13.90;83.20
39601;DHT22;25297;44.758;11.310;2024-01-25T12:55:31;14.00;82.60
39601;DHT22;25297;44.758;11.310;2024-01-25T12:57:58;14.10;83.20
39601;DHT22;25297;44.758;11.310;2024-01-25T13:00:24;14.20;83.10
39601;DHT22;25297;44.758;11.310;2024-01-25T13:02:50;14.30;82.80
39601;DHT22;25297;44.758;11.310;2024-01-25T13:05:16;14.50;82.10
39601;DHT22;25297;44.758;11.310;2024-01-25T13:07:42;14.50;82.40
39601;DHT22;25297;44.758;11.310;2024-01-25T13:10:11;14.60;82.60
39601;DHT22;25297;44.758;11.310;2024-01-25T13:12:40;14.80;82.10
39601;DHT22;25297;44.758;11.310;2024-01-25T13:15:06;15.20;81.40
39601;DHT22;25297;44.758;11.310;2024-01-25T13:17:34;15.20;81.70
39601;DHT22;25297;44.758;11.310;2024-01-25T13:20:01;15.50;81.20
39601;DHT22;25297;44.758;11.310;2024-01-25T13:22:27;15.80;80.40
39601;DHT22;25297;44.758;11.310;2024-01-25T13:24:55;16.00;78.80
39601;DHT22;25297;44.758;11.310;2024-01-25T13:27:21;16.10;79.20
39601;DHT22;25297;44.758;11.310;2024-01-25T13:29:46;16.20;78.80
39601;DHT22;25297;44.758;11.310;2024-01-25T13:32:12;16.30;78.30
39601;DHT22;25297;44.758;11.310;2024-01-25T13:34:38;16.30;77.80
39601;DHT22;25297;44.758;11.310;2024-01-25T13:37:03;16.40;77.90
39601;DHT22;25297;44.758;11.310;2024-01-25T13:39:29;16.60;77.80
39601;DHT22;25297;44.758;11.310;2024-01-25T13:41:55;16.80;77.70
39601;DHT22;25297;44.758;11.310;2024-01-25T13:44:22;17.00;76.40
39601;DHT22;25297;44.758;11.310;2024-01-25T13:46:47;17.10;76.20
39601;DHT22;25297;44.758;11.310;2024-01-25T13:49:13;17.30;75.60
39601;DHT22;25297;44.758;11.310;2024-01-25T13:51:39;17.50;75.50
39601;DHT22;25297;44.758;11.310;2024-01-25T13:54:05;17.60;74.80
39601;DHT22;25297;44.758;11.310;2024-01-25T13:56:30;17.60;73.80
39601;DHT22;25297;44.758;11.310;2024-01-25T13:58:56;17.70;74.10
39601;DHT22;25297;44.758;11.310;2024-01-25T14:01:21;17.60;74.00
39601;DHT22;25297;44.758;11.310;2024-01-25T14:03:47;17.60;73.60
39601;DHT22;25297;44.758;11.310;2024-01-25T14:06:13;17.60;72.70
39601;DHT22;25297;44.758;11.310;2024-01-25T14:08:38;17.60;73.20
39601;DHT22;25297;44.758;11.310;2024-01-25T14:11:04;17.50;73.20
39601;DHT22;25297;44.758;11.310;2024-01-25T14:13:32;17.40;72.90
39601;DHT22;25297;44.758;11.310;2024-01-25T14:15:57;17.30;72.30
39601;DHT22;25297;44.758;11.310;2024-01-25T14:18:26;17.20;72.70
39601;DHT22;25297;44.758;11.310;2024-01-25T14:20:52;17.10;72.50
39601;DHT22;25297;44.758;11.310;2024-01-25T14:23:17;16.90;72.60
39601;DHT22;25297;44.758;11.310;2024-01-25T14:25:43;16.80;72.90
39601;DHT22;25297;44.758;11.310;2024-01-25T14:28:10;16.80;73.70
39601;DHT22;25297;44.758;11.310;2024-01-25T14:30:36;16.70;73.30
39601;DHT22;25297;44.758;11.310;2024-01-25T14:33:01;16.50;73.30
39601;DHT22;25297;44.758;11.310;2024-01-25T14:35:29;16.40;73.30
39601;DHT22;25297;44.758;11.310;2024-01-25T14:37:55;16.30;73.70
39601;DHT22;25297;44.758;11.310;2024-01-25T14:40:21;16.30;74.00
39601;DHT22;25297;44.758;11.310;2024-01-25T14:42:47;16.30;74.30
39601;DHT22;25297;44.758;11.310;2024-01-25T14:45:13;16.20;73.70
39601;DHT22;25297;44.758;11.310;2024-01-25T14:47:39;16.20;74.10
39601;DHT22;25297;44.758;11.310;2024-01-25T14:50:06;16.10;73.80
39601;DHT22;25297;44.758;11.310;2024-01-25T14:52:32;15.90;74.10
39601;DHT22;25297;44.758;11.310;2024-01-25T14:55:00;15.70;74.00
39601;DHT22;25297;44.758;11.310;2024-01-25T14:57:26;15.70;74.40
39601;DHT22;25297;44.758;11.310;2024-01-25T14:59:52;15.60;74.30
39601;DHT22;25297;44.758;11.310;2024-01-25T15:02:17;15.50;73.90
39601;DHT22;25297;44.758;11.310;2024-01-25T15:04:44;15.30;73.90
39601;DHT22;25297;44.758;11.310;2024-01-25T15:07:10;15.20;73.90
39601;DHT22;25297;44.758;11.310;2024-01-25T15:09:35;15.00;74.30
39601;DHT22;25297;44.758;11.310;2024-01-25T15:12:01;14.90;74.90
39601;DHT22;25297;44.758;11.310;2024-01-25T15:14:27;14.70;75.20
39601;DHT22;25297;44.758;11.310;2024-01-25T15:16:52;14.60;74.90
39601;DHT22;25297;44.758;11.310;2024-01-25T15:19:18;14.50;75.80
39601;DHT22;25297;44.758;11.310;2024-01-25T15:21:45;14.30;76.00